sensor_id;sensor_type;location;lat;lon;timestamp;pressure;altitude;pressure_sealevel;temperature;humidity
40013;BME280;37387;42.672;23.334;2023-05-19T00:03:34;946.7;;;11.7;100.0
40013;BME280;37387;42.672;23.334;2023-05-19T00:04:35;946.7;;;11.8;100.0
40013;BME280;37387;42.672;23.334;2023-05-19T00:05:34;946.7;;;11.7;100.0
40013;BME280;37387;42.672;23.334;2023-05-19T00:06:35;946.6;;;11.6;100.0
40013;BME280;37387;42.672;23.334;2023-05-19T00:09:35;946.7;;;11.7;100.0
40013;BME280;37387;42.672;23.334;2023-05-19T00:18:34;946.6;;;11.8;100.0
40013;BME280;37387;42.672;23.334;2023-05-19T00:19:34;946.6;;;11.7;100.0
40013;BME280;37387;42.672;23.334;2023-05-19T00:24:34;946.5;;;11.6;100.0
40013;BME280;37387;42.672;23.334;2023-05-19T00:30:34;946.4;;;11.7;100.0
40013;BME280;37387;42.672;23.334;2023-05-19T00:32:35;946.5;;;11.8;100.0
40013;BME280;37387;42.672;23.334;2023-05-19T00:34:34;946.5;;;11.6;100.0
40013;BME280;37387;42.672;23.334;2023-05-19T00:37:34;946.5;;;11.7;100.0
40013;BME280;37387;42.672;23.334;2023-05-19T00:40:35;946.4;;;11.6;100.0
40013;BME280;37387;42.672;23.334;2023-05-19T00:41:34;946.4;;;11.7;100.0
40013;BME280;37387;42.672;23.334;2023-05-19T00:46:34;946.4;;;11.6;100.0
40013;BME280;37387;42.672;23.334;2023-05-19T00:53:34;946.3;;;11.5;100.0
40013;BME280;37387;42.672;23.334;2023-05-19T00:56:34;946.3;;;11.4;100.0
40013;BME280;37387;42.672;23.334;2023-05-19T00:57:34;946.3;;;11.5;100.0
40013;BME280;37387;42.672;23.334;2023-05-19T00:58:34;946.4;;;11.4;100.0
40013;BME280;37387;42.672;23.334;2023-05-19T01:05:34;946.4;;;11.3;100.0
40013;BME280;37387;42.672;23.334;2023-05-19T01:09:34;946.4;;;11.2;100.0
40013;BME280;37387;42.672;23.334;2023-05-19T01:11:34;946.4;;;11.1;100.0
40013;BME280;37387;42.672;23.334;2023-05-19T01:13:35;946.4;;;11.0;100.0
40013;BME280;37387;42.672;23.334;2023-05-19T01:18:37;946.4;;;11.1;100.0
40013;BME280;37387;42.672;23.334;2023-05-19T01:19:39;946.5;;;11.0;100.0
40013;BME280;37387;42.672;23.334;2023-05-19T01:23:36;946.4;;;10.9;100.0
40013;BME280;37387;42.672;23.334;2023-05-19T01:29:40;946.4;;;10.8;100.0
40013;BME280;37387;42.672;23.334;2023-05-19T01:33:34;946.4;;;10.7;100.0
40013;BME280;37387;42.672;23.334;2023-05-19T01:38:34;946.4;;;10.8;100.0
40013;BME280;37387;42.672;23.334;2023-05-19T01:39:34;946.4;;;10.7;100.0
40013;BME280;37387;42.672;23.334;2023-05-19T01:43:34;946.4;;;10.6;100.0
40013;BME280;37387;42.672;23.334;2023-05-19T01:45:34;946.4;;;10.5;100.0
40013;BME280;37387;42.672;23.334;2023-05-19T01:46:34;946.4;;;10.6;100.0
40013;BME280;37387;42.672;23.334;2023-05-19T01:50:34;946.4;;;10.5;100.0
40013;BME280;37387;42.672;23.334;2023-05-19T01:53:35;946.4;;;10.6;100.0
40013;BME280;37387;42.672;23.334;2023-05-19T01:56:41;946.4;;;10.5;100.0
40013;BME280;37387;42.672;23.334;2023-05-19T01:59:36;946.5;;;10.6;100.0
40013;BME280;37387;42.672;23.334;2023-05-19T02:00:39;946.5;;;10.5;100.0
40013;BME280;37387;42.672;23.334;2023-05-19T02:06:36;946.4;;;10.6;100.0
40013;BME280;37387;42.672;23.334;2023-05-19T02:08:37;946.4;;;10.5;100.0
40013;BME280;37387;42.672;23.334;2023-05-19T02:09:37;946.5;;;10.6;100.0
40013;BME280;37387;42.672;23.334;2023-05-19T02:11:35;946.5;;;10.5;100.0
40013;BME280;37387;42.672;23.334;2023-05-19T02:15:36;946.5;;;10.6;100.0
40013;BME280;37387;42.672;23.334;2023-05-19T02:20:34;946.5;;;10.5;100.0
40013;BME280;37387;42.672;23.334;2023-05-19T02:22:34;946.5;;;10.6;100.0
40013;BME280;37387;42.672;23.334;2023-05-19T02:23:34;946.5;;;10.5;100.0
40013;BME280;37387;42.672;23.334;2023-05-19T02:25:34;946.5;;;10.6;100.0
40013;BME280;37387;42.672;23.334;2023-05-19T02:26:34;946.5;;;10.5;100.0
40013;BME280;37387;42.672;23.334;2023-05-19T02:28:34;946.5;;;10.6;100.0
40013;BME280;37387;42.672;23.334;2023-05-19T02:29:34;946.4;;;10.5;100.0
40013;BME280;37387;42.672;23.334;2023-05-19T02:39:34;946.5;;;10.4;100.0
40013;BME280;37387;42.672;23.334;2023-05-19T02:46:34;946.5;;;10.3;100.0
40013;BME280;37387;42.672;23.334;2023-05-19T02:51:34;946.5;;;10.2;100.0
40013;BME280;37387;42.672;23.334;2023-05-19T02:52:34;946.5;;;10.3;100.0
40013;BME280;37387;42.672;23.334;2023-05-19T02:59:34;946.6;;;10.4;100.0
40013;BME280;37387;42.672;23.334;2023-05-19T03:01:34;946.5;;;10.3;100.0
40013;BME280;37387;42.672;23.334;2023-05-19T03:02:34;946.5;;;10.4;100.0
40013;BME280;37387;42.672;23.334;2023-05-19T03:11:34;946.6;;;10.5;100.0
40013;BME280;37387;42.672;23.334;2023-05-19T03:15:34;946.7;;;10.6;100.0
40013;BME280;37387;42.672;23.334;2023-05-19T03:22:34;946.7;;;10.7;100.0
40013;BME280;37387;42.672;23.334;2023-05-19T03:23:34;946.7;;;10.9;100.0
40013;BME280;37387;42.672;23.334;2023-05-19T03:24:34;946.7;;;11.0;100.0
40013;BME280;37387;42.672;23.334;2023-05-19T03:25:34;946.7;;;11.1;100.0
40013;BME280;37387;42.672;23.334;2023-05-19T03:26:34;946.7;;;11.2;100.0
40013;BME280;37387;42.672;23.334;2023-05-19T03:27:34;946.7;;;11.3;100.0
40013;BME280;37387;42.672;23.334;2023-05-19T03:28:34;946.7;;;11.5;100.0
40013;BME280;37387;42.672;23.334;2023-05-19T03:29:34;946.7;;;11.4;100.0
40013;BME280;37387;42.672;23.334;2023-05-19T03:30:34;946.7;;;11.5;100.0
40013;BME280;37387;42.672;23.334;2023-05-19T03:31:34;946.7;;;11.7;100.0
40013;BME280;37387;42.672;23.334;2023-05-19T03:32:34;946.8;;;11.9;100.0
40013;BME280;37387;42.672;23.334;2023-05-19T03:33:34;946.8;;;11.8;100.0
40013;BME280;37387;42.672;23.334;2023-05-19T03:34:34;946.8;;;11.6;100.0
40013;BME280;37387;42.672;23.334;2023-05-19T03:36:34;946.8;;;11.5;100.0
40013;BME280;37387;42.672;23.334;2023-05-19T03:38:34;946.7;;;11.4;100.0
40013;BME280;37387;42.672;23.334;2023-05-19T03:39:34;946.7;;;11.5;100.0
40013;BME280;37387;42.672;23.334;2023-05-19T03:44:34;946.7;;;11.6;100.0
40013;BME280;37387;42.672;23.334;2023-05-19T03:45:34;946.8;;;11.5;100.0
40013;BME280;37387;42.672;23.334;2023-05-19T03:48:34;946.8;;;11.7;100.0
40013;BME280;37387;42.672;23.334;2023-05-19T03:49:34;946.8;;;11.8;100.0
40013;BME280;37387;42.672;23.334;2023-05-19T03:52:34;946.8;;;11.9;100.0
40013;BME280;37387;42.672;23.334;2023-05-19T03:53:34;946.8;;;12.0;100.0
40013;BME280;37387;42.672;23.334;2023-05-19T03:55:34;946.9;;;12.1;100.0
40013;BME280;37387;42.672;23.334;2023-05-19T03:56:36;946.9;;;12.3;100.0
40013;BME280;37387;42.672;23.334;2023-05-19T03:57:34;946.9;;;12.6;100.0
40013;BME280;37387;42.672;23.334;2023-05-19T03:58:34;946.9;;;12.8;100.0
40013;BME280;37387;42.672;23.334;2023-05-19T03:59:34;946.9;;;13.2;100.0
40013;BME280;37387;42.672;23.334;2023-05-19T04:00:34;947.0;;;13.6;100.0
40013;BME280;37387;42.672;23.334;2023-05-19T04:02:34;947.0;;;14.1;100.0
40013;BME280;37387;42.672;23.334;2023-05-19T04:03:34;947.0;;;14.6;100.0
40013;BME280;37387;42.672;23.334;2023-05-19T04:04:34;947.0;;;14.9;100.0
40013;BME280;37387;42.672;23.334;2023-05-19T04:05:34;947.1;;;15.5;100.0
40013;BME280;37387;42.672;23.334;2023-05-19T04:06:34;947.1;;;16.1;100.0
40013;BME280;37387;42.672;23.334;2023-05-19T04:07:34;947.2;;;16.6;100.0
40013;BME280;37387;42.672;23.334;2023-05-19T04:08:34;947.2;;;16.7;100.0
40013;BME280;37387;42.672;23.334;2023-05-19T04:09:34;947.2;;;17.1;100.0
40013;BME280;37387;42.672;23.334;2023-05-19T04:10:34;947.2;;;17.2;100.0
40013;BME280;37387;42.672;23.334;2023-05-19T04:12:34;947.2;;;17.1;100.0
40013;BME280;37387;42.672;23.334;2023-05-19T04:13:34;947.2;;;16.8;100.0
40013;BME280;37387;42.672;23.334;2023-05-19T04:14:34;947.1;;;16.2;100.0
40013;BME280;37387;42.672;23.334;2023-05-19T04:15:34;947.1;;;16.7;100.0
40013;BME280;37387;42.672;23.334;2023-05-19T04:16:34;947.1;;;17.0;100.0
40013;BME280;37387;42.672;23.334;2023-05-19T04:18:34;947.2;;;16.8;98.2
40013;BME280;37387;42.672;23.334;2023-05-19T04:19:34;947.2;;;16.9;99.5
40013;BME280;37387;42.672;23.334;2023-05-19T04:20:34;947.2;;;17.1;98.6
40013;BME280;37387;42.672;23.334;2023-05-19T04:21:34;947.2;;;17.0;95.8
40013;BME280;37387;42.672;23.334;2023-05-19T04:22:34;947.3;;;17.7;90.3
40013;BME280;37387;42.672;23.334;2023-05-19T04:23:34;947.3;;;17.5;89.5
40013;BME280;37387;42.672;23.334;2023-05-19T04:26:34;947.4;;;17.8;90.2
40013;BME280;37387;42.672;23.334;2023-05-19T04:27:34;947.4;;;18.2;88.1
40013;BME280;37387;42.672;23.334;2023-05-19T04:28:34;947.4;;;18.1;81.7
40013;BME280;37387;42.672;23.334;2023-05-19T04:29:34;947.4;;;18.7;83.1
40013;BME280;37387;42.672;23.334;2023-05-19T04:30:34;947.4;;;19.3;75.1
40013;BME280;37387;42.672;23.334;2023-05-19T04:31:34;947.4;;;19.0;75.1
40013;BME280;37387;42.672;23.334;2023-05-19T04:32:34;947.3;;;19.1;73.8
40013;BME280;37387;42.672;23.334;2023-05-19T04:33:34;947.3;;;19.0;73.8
40013;BME280;37387;42.672;23.334;2023-05-19T04:34:34;947.3;;;18.4;72.4
40013;BME280;37387;42.672;23.334;2023-05-19T04:35:34;947.4;;;17.9;78.1
40013;BME280;37387;42.672;23.334;2023-05-19T04:36:34;947.3;;;16.8;78.1
40013;BME280;37387;42.672;23.334;2023-05-19T04:37:34;947.3;;;16.6;87.2
40013;BME280;37387;42.672;23.334;2023-05-19T04:40:34;947.4;;;17.4;85.5
40013;BME280;37387;42.672;23.334;2023-05-19T04:41:34;947.4;;;18.0;85.5
40013;BME280;37387;42.672;23.334;2023-05-19T04:42:34;947.4;;;18.4;80.7
40013;BME280;37387;42.672;23.334;2023-05-19T04:43:34;947.4;;;18.6;78.6
40013;BME280;37387;42.672;23.334;2023-05-19T04:44:34;947.4;;;18.2;75.3
40013;BME280;37387;42.672;23.334;2023-05-19T04:45:34;947.4;;;18.6;75.3
40013;BME280;37387;42.672;23.334;2023-05-19T04:46:34;947.4;;;18.8;75.3
40013;BME280;37387;42.672;23.334;2023-05-19T04:47:34;947.4;;;18.5;74.3
40013;BME280;37387;42.672;23.334;2023-05-19T04:48:34;947.4;;;18.4;74.5
40013;BME280;37387;42.672;23.334;2023-05-19T04:49:34;947.4;;;18.9;74.8
40013;BME280;37387;42.672;23.334;2023-05-19T04:50:34;947.4;;;19.2;73.2
40013;BME280;37387;42.672;23.334;2023-05-19T04:51:34;947.4;;;18.9;71.9
40013;BME280;37387;42.672;23.334;2023-05-19T04:52:34;947.4;;;19.2;71.9
40013;BME280;37387;42.672;23.334;2023-05-19T04:53:34;947.4;;;18.6;72.4
40013;BME280;37387;42.672;23.334;2023-05-19T04:54:34;947.4;;;18.8;72.4
40013;BME280;37387;42.672;23.334;2023-05-19T04:55:34;947.5;;;18.7;72.9
40013;BME280;37387;42.672;23.334;2023-05-19T04:56:34;947.4;;;19.1;74.4
40013;BME280;37387;42.672;23.334;2023-05-19T04:57:34;947.4;;;19.3;70.9
40013;BME280;37387;42.672;23.334;2023-05-19T04:58:34;947.4;;;19.5;70.9
40013;BME280;37387;42.672;23.334;2023-05-19T04:59:34;947.4;;;19.4;70.0
40013;BME280;37387;42.672;23.334;2023-05-19T05:00:35;947.4;;;19.5;70.0
40013;BME280;37387;42.672;23.334;2023-05-19T05:01:34;947.5;;;19.7;67.8
40013;BME280;37387;42.672;23.334;2023-05-19T05:02:34;947.5;;;19.6;67.8
40013;BME280;37387;42.672;23.334;2023-05-19T05:03:34;947.5;;;18.3;68.2
40013;BME280;37387;42.672;23.334;2023-05-19T05:04:34;947.4;;;18.4;73.9
40013;BME280;37387;42.672;23.334;2023-05-19T05:05:34;947.4;;;19.2;71.8
40013;BME280;37387;42.672;23.334;2023-05-19T05:07:34;947.5;;;19.4;69.1
40013;BME280;37387;42.672;23.334;2023-05-19T05:08:35;947.5;;;18.8;69.1
40013;BME280;37387;42.672;23.334;2023-05-19T05:09:34;947.5;;;18.7;72.9
40013;BME280;37387;42.672;23.334;2023-05-19T05:10:34;947.5;;;18.2;72.9
40013;BME280;37387;42.672;23.334;2023-05-19T05:11:35;947.5;;;17.1;74.9
40013;BME280;37387;42.672;23.334;2023-05-19T05:12:34;947.4;;;16.0;80.9
40013;BME280;37387;42.672;23.334;2023-05-19T05:13:35;947.3;;;15.7;91.5
40013;BME280;37387;42.672;23.334;2023-05-19T05:14:35;947.3;;;15.9;100.0
40013;BME280;37387;42.672;23.334;2023-05-19T05:15:34;947.3;;;16.0;98.5
40013;BME280;37387;42.672;23.334;2023-05-19T05:16:35;947.3;;;16.7;98.5
40013;BME280;37387;42.672;23.334;2023-05-19T05:18:34;947.3;;;17.1;92.9
40013;BME280;37387;42.672;23.334;2023-05-19T05:19:35;947.4;;;16.8;88.8
40013;BME280;37387;42.672;23.334;2023-05-19T05:21:35;947.3;;;16.6;90.2
40013;BME280;37387;42.672;23.334;2023-05-19T05:24:35;947.3;;;17.0;91.1
40013;BME280;37387;42.672;23.334;2023-05-19T05:25:35;947.4;;;17.2;89.9
40013;BME280;37387;42.672;23.334;2023-05-19T05:26:35;947.4;;;17.6;87.8
40013;BME280;37387;42.672;23.334;2023-05-19T05:27:34;947.3;;;17.4;86.0
40013;BME280;37387;42.672;23.334;2023-05-19T05:28:34;947.3;;;17.6;84.8
40013;BME280;37387;42.672;23.334;2023-05-19T05:29:34;947.4;;;18.4;83.3
40013;BME280;37387;42.672;23.334;2023-05-19T05:30:34;947.4;;;19.2;80.1
40013;BME280;37387;42.672;23.334;2023-05-19T05:31:34;947.4;;;19.5;71.4
40013;BME280;37387;42.672;23.334;2023-05-19T05:32:34;947.4;;;19.9;71.4
40013;BME280;37387;42.672;23.334;2023-05-19T05:33:34;947.4;;;20.4;69.1
40013;BME280;37387;42.672;23.334;2023-05-19T05:34:34;947.5;;;20.6;66.5
40013;BME280;37387;42.672;23.334;2023-05-19T05:37:34;947.5;;;20.7;65.6
40013;BME280;37387;42.672;23.334;2023-05-19T05:38:34;947.5;;;20.9;65.3
40013;BME280;37387;42.672;23.334;2023-05-19T05:39:34;947.5;;;21.2;64.2
40013;BME280;37387;42.672;23.334;2023-05-19T05:40:34;947.5;;;21.0;61.7
40013;BME280;37387;42.672;23.334;2023-05-19T05:41:34;947.5;;;20.8;62.8
40013;BME280;37387;42.672;23.334;2023-05-19T05:42:34;947.5;;;20.9;63.9
40013;BME280;37387;42.672;23.334;2023-05-19T05:43:34;947.5;;;21.4;63.8
40013;BME280;37387;42.672;23.334;2023-05-19T05:44:34;947.6;;;22.1;59.1
40013;BME280;37387;42.672;23.334;2023-05-19T05:45:34;947.6;;;22.9;59.1
40013;BME280;37387;42.672;23.334;2023-05-19T05:46:34;947.6;;;22.8;56.9
40013;BME280;37387;42.672;23.334;2023-05-19T05:47:34;947.5;;;22.5;56.7
40013;BME280;37387;42.672;23.334;2023-05-19T05:48:35;947.6;;;22.8;56.6
40013;BME280;37387;42.672;23.334;2023-05-19T05:49:35;947.6;;;22.9;56.6
40013;BME280;37387;42.672;23.334;2023-05-19T05:50:35;947.6;;;22.6;55.5
40013;BME280;37387;42.672;23.334;2023-05-19T05:51:35;947.5;;;22.0;55.7
40013;BME280;37387;42.672;23.334;2023-05-19T05:52:35;947.5;;;21.2;57.5
40013;BME280;37387;42.672;23.334;2023-05-19T05:53:36;947.5;;;21.5;61.2
40013;BME280;37387;42.672;23.334;2023-05-19T05:54:35;947.5;;;22.0;60.5
40013;BME280;37387;42.672;23.334;2023-05-19T05:55:35;947.5;;;22.5;58.9
40013;BME280;37387;42.672;23.334;2023-05-19T05:56:35;947.6;;;22.4;56.8
40013;BME280;37387;42.672;23.334;2023-05-19T05:57:34;947.5;;;21.2;56.8
40013;BME280;37387;42.672;23.334;2023-05-19T05:58:34;947.5;;;20.9;59.9
40013;BME280;37387;42.672;23.334;2023-05-19T05:59:34;947.6;;;20.8;61.9
40013;BME280;37387;42.672;23.334;2023-05-19T06:00:34;947.6;;;21.4;62.6
40013;BME280;37387;42.672;23.334;2023-05-19T06:01:34;947.6;;;21.6;59.5
40013;BME280;37387;42.672;23.334;2023-05-19T06:02:34;947.7;;;22.2;59.5
40013;BME280;37387;42.672;23.334;2023-05-19T06:03:35;947.7;;;21.9;57.6
40013;BME280;37387;42.672;23.334;2023-05-19T06:04:34;947.7;;;22.3;58.5
40013;BME280;37387;42.672;23.334;2023-05-19T06:05:34;947.8;;;22.6;57.2
40013;BME280;37387;42.672;23.334;2023-05-19T06:06:34;947.8;;;22.3;56.7
40013;BME280;37387;42.672;23.334;2023-05-19T06:07:34;947.8;;;22.0;57.3
40013;BME280;37387;42.672;23.334;2023-05-19T06:08:34;947.8;;;22.5;58.1
40013;BME280;37387;42.672;23.334;2023-05-19T06:11:34;947.8;;;23.0;56.4
40013;BME280;37387;42.672;23.334;2023-05-19T06:12:35;947.8;;;23.1;56.1
40013;BME280;37387;42.672;23.334;2023-05-19T06:13:34;947.8;;;23.6;54.4
40013;BME280;37387;42.672;23.334;2023-05-19T06:14:34;947.8;;;23.7;53.8
40013;BME280;37387;42.672;23.334;2023-05-19T06:15:35;947.8;;;23.9;52.8
40013;BME280;37387;42.672;23.334;2023-05-19T06:16:34;947.8;;;24.1;53.3
40013;BME280;37387;42.672;23.334;2023-05-19T06:17:34;947.8;;;24.8;51.6
40013;BME280;37387;42.672;23.334;2023-05-19T06:18:34;947.8;;;24.0;49.4
40013;BME280;37387;42.672;23.334;2023-05-19T06:19:34;947.7;;;24.1;51.1
40013;BME280;37387;42.672;23.334;2023-05-19T06:20:34;947.7;;;24.8;51.5
40013;BME280;37387;42.672;23.334;2023-05-19T06:21:34;947.7;;;24.6;49.7
40013;BME280;37387;42.672;23.334;2023-05-19T06:22:34;947.8;;;24.3;49.6
40013;BME280;37387;42.672;23.334;2023-05-19T06:23:34;947.7;;;24.1;50.0
40013;BME280;37387;42.672;23.334;2023-05-19T06:24:34;947.7;;;24.8;51.1
40013;BME280;37387;42.672;23.334;2023-05-19T06:25:34;947.8;;;25.5;48.5
40013;BME280;37387;42.672;23.334;2023-05-19T06:26:34;947.8;;;25.4;48.5
40013;BME280;37387;42.672;23.334;2023-05-19T06:27:34;947.7;;;24.8;49.0
40013;BME280;37387;42.672;23.334;2023-05-19T06:28:34;947.6;;;24.3;49.0
40013;BME280;37387;42.672;23.334;2023-05-19T06:29:34;947.7;;;24.1;49.6
40013;BME280;37387;42.672;23.334;2023-05-19T06:30:34;947.7;;;24.3;49.6
40013;BME280;37387;42.672;23.334;2023-05-19T06:31:34;947.7;;;25.1;49.2
40013;BME280;37387;42.672;23.334;2023-05-19T06:32:34;947.7;;;25.0;46.8
40013;BME280;37387;42.672;23.334;2023-05-19T06:33:34;947.7;;;25.4;47.5
40013;BME280;37387;42.672;23.334;2023-05-19T06:34:34;947.7;;;25.1;46.6
40013;BME280;37387;42.672;23.334;2023-05-19T06:36:34;947.7;;;24.5;47.2
40013;BME280;37387;42.672;23.334;2023-05-19T06:37:34;947.7;;;24.2;47.6
40013;BME280;37387;42.672;23.334;2023-05-19T06:39:34;947.5;;;24.5;47.8
40013;BME280;37387;42.672;23.334;2023-05-19T06:40:35;947.5;;;24.6;46.4
40013;BME280;37387;42.672;23.334;2023-05-19T06:41:34;947.6;;;24.3;46.3
40013;BME280;37387;42.672;23.334;2023-05-19T06:42:34;947.6;;;24.2;47.2
40013;BME280;37387;42.672;23.334;2023-05-19T06:43:34;947.7;;;24.4;48.5
40013;BME280;37387;42.672;23.334;2023-05-19T06:44:34;947.7;;;25.2;47.0
40013;BME280;37387;42.672;23.334;2023-05-19T06:45:34;947.7;;;25.0;47.0
40013;BME280;37387;42.672;23.334;2023-05-19T06:46:34;947.7;;;25.2;47.5
40013;BME280;37387;42.672;23.334;2023-05-19T06:47:34;947.7;;;25.3;47.7
40013;BME280;37387;42.672;23.334;2023-05-19T06:49:34;947.8;;;25.6;46.3
40013;BME280;37387;42.672;23.334;2023-05-19T06:50:34;947.7;;;26.1;44.8
40013;BME280;37387;42.672;23.334;2023-05-19T06:51:34;947.7;;;25.7;44.8
40013;BME280;37387;42.672;23.334;2023-05-19T06:52:34;947.7;;;23.5;42.0
40013;BME280;37387;42.672;23.334;2023-05-19T06:53:34;947.6;;;24.2;47.8
40013;BME280;37387;42.672;23.334;2023-05-19T06:54:34;947.7;;;25.0;47.1
40013;BME280;37387;42.672;23.334;2023-05-19T06:55:34;947.7;;;25.1;46.0
40013;BME280;37387;42.672;23.334;2023-05-19T06:57:34;947.8;;;24.9;45.5
40013;BME280;37387;42.672;23.334;2023-05-19T06:58:34;947.8;;;25.3;46.1
40013;BME280;37387;42.672;23.334;2023-05-19T06:59:34;947.8;;;26.3;46.1
40013;BME280;37387;42.672;23.334;2023-05-19T07:00:34;947.8;;;26.4;43.8
40013;BME280;37387;42.672;23.334;2023-05-19T07:01:34;947.8;;;26.2;43.0
40013;BME280;37387;42.672;23.334;2023-05-19T07:02:34;947.8;;;26.0;43.0
40013;BME280;37387;42.672;23.334;2023-05-19T07:03:34;947.8;;;24.6;42.7
40013;BME280;37387;42.672;23.334;2023-05-19T07:04:34;947.7;;;24.2;43.5
40013;BME280;37387;42.672;23.334;2023-05-19T07:05:34;947.8;;;25.0;46.0
40013;BME280;37387;42.672;23.334;2023-05-19T07:06:35;947.8;;;24.9;45.4
40013;BME280;37387;42.672;23.334;2023-05-19T07:07:34;947.8;;;25.3;44.6
40013;BME280;37387;42.672;23.334;2023-05-19T07:08:34;947.8;;;25.0;43.4
40013;BME280;37387;42.672;23.334;2023-05-19T07:09:34;947.8;;;24.7;44.7
40013;BME280;37387;42.672;23.334;2023-05-19T07:10:34;947.8;;;25.3;45.6
40013;BME280;37387;42.672;23.334;2023-05-19T07:11:34;947.8;;;24.4;44.5
40013;BME280;37387;42.672;23.334;2023-05-19T07:12:34;947.8;;;24.3;44.4
40013;BME280;37387;42.672;23.334;2023-05-19T07:13:34;947.8;;;24.0;45.5
40013;BME280;37387;42.672;23.334;2023-05-19T07:14:34;947.8;;;22.5;47.2
40013;BME280;37387;42.672;23.334;2023-05-19T07:15:34;947.8;;;21.6;48.4
40013;BME280;37387;42.672;23.334;2023-05-19T07:16:34;947.8;;;21.4;51.7
40013;BME280;37387;42.672;23.334;2023-05-19T07:17:34;947.7;;;23.0;53.8
40013;BME280;37387;42.672;23.334;2023-05-19T07:18:34;947.9;;;24.0;50.9
40013;BME280;37387;42.672;23.334;2023-05-19T07:19:34;947.8;;;24.3;47.6
40013;BME280;37387;42.672;23.334;2023-05-19T07:20:34;947.8;;;25.2;45.1
40013;BME280;37387;42.672;23.334;2023-05-19T07:21:34;947.9;;;25.3;45.1
40013;BME280;37387;42.672;23.334;2023-05-19T07:23:34;947.8;;;26.1;43.3
40013;BME280;37387;42.672;23.334;2023-05-19T07:24:34;947.9;;;26.4;42.6
40013;BME280;37387;42.672;23.334;2023-05-19T07:25:34;947.9;;;25.9;42.7
40013;BME280;37387;42.672;23.334;2023-05-19T07:26:34;947.9;;;23.1;42.5
40013;BME280;37387;42.672;23.334;2023-05-19T07:27:34;947.8;;;22.1;46.0
40013;BME280;37387;42.672;23.334;2023-05-19T07:28:34;947.8;;;21.9;50.3
40013;BME280;37387;42.672;23.334;2023-05-19T07:29:35;947.9;;;22.0;51.3
40013;BME280;37387;42.672;23.334;2023-05-19T07:30:34;947.8;;;22.7;51.5
40013;BME280;37387;42.672;23.334;2023-05-19T07:31:34;947.8;;;23.7;51.5
40013;BME280;37387;42.672;23.334;2023-05-19T07:32:34;947.8;;;24.0;49.6
40013;BME280;37387;42.672;23.334;2023-05-19T07:33:34;947.8;;;23.6;48.8
40013;BME280;37387;42.672;23.334;2023-05-19T07:34:34;947.8;;;23.9;49.5
40013;BME280;37387;42.672;23.334;2023-05-19T07:35:34;947.8;;;25.2;47.2
40013;BME280;37387;42.672;23.334;2023-05-19T07:36:34;947.8;;;25.6;45.7
40013;BME280;37387;42.672;23.334;2023-05-19T07:37:34;947.8;;;25.9;44.1
40013;BME280;37387;42.672;23.334;2023-05-19T07:38:34;947.9;;;24.8;42.5
40013;BME280;37387;42.672;23.334;2023-05-19T07:39:34;947.8;;;24.3;44.7
40013;BME280;37387;42.672;23.334;2023-05-19T07:40:34;947.8;;;24.0;47.1
40013;BME280;37387;42.672;23.334;2023-05-19T07:41:34;947.8;;;23.6;47.6
40013;BME280;37387;42.672;23.334;2023-05-19T07:42:34;947.8;;;23.4;48.1
40013;BME280;37387;42.672;23.334;2023-05-19T07:43:34;947.8;;;23.3;48.8
40013;BME280;37387;42.672;23.334;2023-05-19T07:44:34;947.8;;;23.7;48.8
40013;BME280;37387;42.672;23.334;2023-05-19T07:45:35;947.8;;;24.2;48.2
40013;BME280;37387;42.672;23.334;2023-05-19T07:46:34;947.8;;;24.9;47.6
40013;BME280;37387;42.672;23.334;2023-05-19T07:47:34;947.8;;;25.9;45.2
40013;BME280;37387;42.672;23.334;2023-05-19T07:48:34;947.9;;;26.6;41.8
40013;BME280;37387;42.672;23.334;2023-05-19T07:49:34;947.9;;;26.3;41.8
40013;BME280;37387;42.672;23.334;2023-05-19T07:50:34;947.8;;;26.0;41.3
40013;BME280;37387;42.672;23.334;2023-05-19T07:52:34;947.8;;;26.9;43.7
40013;BME280;37387;42.672;23.334;2023-05-19T07:53:35;947.8;;;26.5;40.8
40013;BME280;37387;42.672;23.334;2023-05-19T07:54:34;947.8;;;26.2;41.0
40013;BME280;37387;42.672;23.334;2023-05-19T07:55:34;947.8;;;26.1;42.0
40013;BME280;37387;42.672;23.334;2023-05-19T07:56:34;947.8;;;26.0;42.0
40013;BME280;37387;42.672;23.334;2023-05-19T07:57:34;947.8;;;26.3;42.3
40013;BME280;37387;42.672;23.334;2023-05-19T07:58:34;947.8;;;25.5;42.5
40013;BME280;37387;42.672;23.334;2023-05-19T07:59:34;947.8;;;24.0;44.0
40013;BME280;37387;42.672;23.334;2023-05-19T08:00:34;947.8;;;24.1;48.2
40013;BME280;37387;42.672;23.334;2023-05-19T08:01:34;947.7;;;23.4;46.7
40013;BME280;37387;42.672;23.334;2023-05-19T08:02:34;947.7;;;23.8;47.0
40013;BME280;37387;42.672;23.334;2023-05-19T08:03:34;947.8;;;23.5;47.5
40013;BME280;37387;42.672;23.334;2023-05-19T08:04:34;947.8;;;24.0;47.5
40013;BME280;37387;42.672;23.334;2023-05-19T08:06:34;947.7;;;24.8;46.6
40013;BME280;37387;42.672;23.334;2023-05-19T08:07:34;947.7;;;25.1;44.9
40013;BME280;37387;42.672;23.334;2023-05-19T08:08:34;947.8;;;25.4;44.4
40013;BME280;37387;42.672;23.334;2023-05-19T08:09:34;947.8;;;26.1;43.5
40013;BME280;37387;42.672;23.334;2023-05-19T08:10:34;947.7;;;26.3;42.0
40013;BME280;37387;42.672;23.334;2023-05-19T08:11:35;947.7;;;26.1;42.0
40013;BME280;37387;42.672;23.334;2023-05-19T08:12:34;947.7;;;25.2;44.7
40013;BME280;37387;42.672;23.334;2023-05-19T08:13:34;947.7;;;25.7;44.7
40013;BME280;37387;42.672;23.334;2023-05-19T08:14:34;947.7;;;26.3;41.0
40013;BME280;37387;42.672;23.334;2023-05-19T08:16:34;947.8;;;26.4;41.1
40013;BME280;37387;42.672;23.334;2023-05-19T08:17:34;947.8;;;27.2;40.4
40013;BME280;37387;42.672;23.334;2023-05-19T08:18:34;947.7;;;26.7;40.4
40013;BME280;37387;42.672;23.334;2023-05-19T08:19:34;947.7;;;26.0;41.6
40013;BME280;37387;42.672;23.334;2023-05-19T08:21:34;947.8;;;25.3;41.8
40013;BME280;37387;42.672;23.334;2023-05-19T08:22:35;947.8;;;25.5;43.4
40013;BME280;37387;42.672;23.334;2023-05-19T08:24:34;947.8;;;24.7;44.1
40013;BME280;37387;42.672;23.334;2023-05-19T08:25:34;947.7;;;23.7;44.1
40013;BME280;37387;42.672;23.334;2023-05-19T08:26:34;947.7;;;24.0;46.7
40013;BME280;37387;42.672;23.334;2023-05-19T08:27:34;947.7;;;23.6;48.3
40013;BME280;37387;42.672;23.334;2023-05-19T08:28:34;947.7;;;22.6;48.3
40013;BME280;37387;42.672;23.334;2023-05-19T08:29:35;947.7;;;21.8;48.7
40013;BME280;37387;42.672;23.334;2023-05-19T08:30:34;947.6;;;22.6;51.5
40013;BME280;37387;42.672;23.334;2023-05-19T08:31:34;947.6;;;23.6;49.3
40013;BME280;37387;42.672;23.334;2023-05-19T08:32:34;947.7;;;24.6;47.3
40013;BME280;37387;42.672;23.334;2023-05-19T08:33:34;947.7;;;24.2;47.3
40013;BME280;37387;42.672;23.334;2023-05-19T08:34:34;947.7;;;24.0;46.7